Time;durP1;ratioP1;P1;durP2;ratioP2;P2;SDS_P1;SDS_P2;PMS_P1;PMS_P2;Temp;Humidity;BMP_temperature;BMP_pressure;BME280_temperature;BME280_humidity;BME280_pressure;Samples;Min_cycle;Max_cycle;Signal;HPM_P1;HPM_P2
2023/11/19 00:02:08;;;;;;;;;0.00;0.00;;;;;16.10;100.00;101161.66;4998612;28;45714;-70
2023/11/19 00:04:40;;;;;;;;;0.50;0.50;;;;;16.12;100.00;101167.81;4997561;28;72490;-70
2023/11/19 00:07:06;;;;;;;;;1.00;1.00;;;;;16.10;100.00;101162.53;4998664;28;45521;-70
2023/11/19 00:09:33;;;;;;;;;2.00;0.00;;;;;16.14;100.00;101163.25;4984755;28;45472;-70
2023/11/19 00:12:00;;;;;;;;;1.00;0.25;;;;;16.15;100.00;101156.91;4991827;28;46444;-70
2023/11/19 00:14:25;;;;;;;;;0.75;0.00;;;;;16.13;100.00;101163.34;4998701;28;45465;-70
2023/11/19 00:16:51;;;;;;;;;0.25;0.25;;;;;16.14;100.00;101162.38;4998848;28;45419;-70
2023/11/19 00:19:17;;;;;;;;;1.00;1.00;;;;;16.16;100.00;101160.50;4985564;28;45329;-70
2023/11/19 00:21:42;;;;;;;;;1.00;1.00;;;;;16.17;100.00;101163.13;4996678;28;73992;-70
2023/11/19 00:24:08;;;;;;;;;1.00;1.00;;;;;16.16;100.00;101161.34;4996332;28;62253;-70
2023/11/19 00:26:34;;;;;;;;;1.25;1.00;;;;;16.14;100.00;101152.50;5001713;28;45379;-70
2023/11/19 00:28:59;;;;;;;;;0.00;0.00;;;;;16.17;100.00;101156.84;5001909;28;45276;-70
2023/11/19 00:31:27;;;;;;;;;2.00;1.00;;;;;16.14;100.00;101149.78;5001622;28;46310;-70
2023/11/19 00:33:53;;;;;;;;;0.00;0.00;;;;;16.14;100.00;101149.78;4998700;28;45555;-70
2023/11/19 00:36:19;;;;;;;;;0.25;0.25;;;;;16.16;100.00;101142.50;4986102;28;45604;-70
2023/11/19 00:38:44;;;;;;;;;1.75;0.25;;;;;16.13;100.00;101142.66;5000760;28;45377;-70
2023/11/19 00:41:10;;;;;;;;;0.00;0.00;;;;;16.14;100.00;101139.03;5001884;28;46078;-70
2023/11/19 00:43:35;;;;;;;;;0.25;0.25;;;;;16.16;100.00;101128.19;5001821;28;45315;-70
2023/11/19 00:46:01;;;;;;;;;0.75;0.75;;;;;16.18;100.00;101132.53;5001906;28;45532;-70
2023/11/19 00:48:28;;;;;;;;;1.50;0.25;;;;;16.20;100.00;101130.63;4999901;28;73184;-70
2023/11/19 00:50:53;;;;;;;;;0.25;0.25;;;;;16.21;100.00;101134.19;5001555;28;45343;-70
2023/11/19 00:53:18;;;;;;;;;0.00;0.00;;;;;16.23;100.00;101135.00;5001622;28;45459;-70
2023/11/19 00:55:43;;;;;;;;;2.00;0.50;;;;;16.21;100.00;101132.38;5000957;28;67731;-70
2023/11/19 00:58:09;;;;;;;;;3.00;0.25;;;;;16.22;100.00;101122.47;5000950;28;45415;-70
2023/11/19 01:00:34;;;;;;;;;1.00;0.75;;;;;16.25;100.00;101138.47;5000319;28;74405;-70
2023/11/19 01:03:00;;;;;;;;;0.25;0.25;;;;;16.23;100.00;101130.47;5001263;28;45351;-70
2023/11/19 01:05:25;;;;;;;;;1.00;1.00;;;;;16.22;100.00;101126.06;4988919;28;45559;-71
2023/11/19 01:07:53;;;;;;;;;1.00;1.00;;;;;16.26;100.00;101135.72;4997309;28;45429;-70
2023/11/19 01:10:19;;;;;;;;;0.00;0.00;;;;;16.24;100.00;101134.06;4996993;28;46495;-70
2023/11/19 01:12:44;;;;;;;;;0.00;0.00;;;;;16.25;100.00;101139.34;5001231;28;45375;-70
2023/11/19 01:15:09;;;;;;;;;0.00;0.00;;;;;16.26;100.00;101130.31;5000325;28;45505;-70
2023/11/19 01:17:37;;;;;;;;;1.00;1.00;;;;;16.27;100.00;101129.38;4997356;28;45490;-69
2023/11/19 01:20:03;;;;;;;;;0.00;0.00;;;;;16.25;100.00;101138.47;4992467;28;45351;-69
2023/11/19 01:22:28;;;;;;;;;1.50;1.00;;;;;16.27;100.00;101140.16;4996918;28;46809;-69
2023/11/19 01:24:54;;;;;;;;;1.25;0.25;;;;;16.27;100.00;101142.84;4991546;28;45296;-69
2023/11/19 01:27:19;;;;;;;;;1.00;1.00;;;;;16.27;100.00;101142.84;4999590;28;45308;-69
2023/11/19 01:29:44;;;;;;;;;1.00;1.00;;;;;16.29;100.00;101137.38;5001001;28;45440;-70
2023/11/19 01:32:10;;;;;;;;;0.00;0.00;;;;;16.28;100.00;101138.31;5000641;28;57129;-70
2023/11/19 01:34:35;;;;;;;;;0.50;0.00;;;;;16.29;100.00;101146.34;5000528;28;63391;-70
2023/11/19 01:37:01;;;;;;;;;0.00;0.00;;;;;16.27;100.00;101150.03;4999559;28;45399;-70
2023/11/19 01:39:27;;;;;;;;;0.00;0.00;;;;;16.25;100.00;101139.34;5000022;28;51136;-70
2023/11/19 01:41:52;;;;;;;;;1.00;1.00;;;;;16.28;100.00;101141.03;5000053;28;45539;-70
2023/11/19 01:44:17;;;;;;;;;0.00;0.00;;;;;16.29;100.00;101145.47;4988773;28;67632;-70
2023/11/19 01:46:47;;;;;;;;;0.00;0.00;;;;;16.32;100.00;101147.13;4998565;28;45703;-70
2023/11/19 01:49:15;;;;;;;;;0.00;0.00;;;;;16.32;100.00;101152.50;4997185;28;45343;-70
2023/11/19 01:51:41;;;;;;;;;1.00;0.50;;;;;16.29;100.00;101146.34;5000551;28;45621;-70
2023/11/19 01:54:07;;;;;;;;;1.00;0.00;;;;;16.33;100.00;101143.50;5000954;28;45394;-70
2023/11/19 01:56:33;;;;;;;;;1.75;0.50;;;;;16.34;100.00;101147.91;5000667;28;45391;-71
2023/11/19 01:58:59;;;;;;;;;0.00;0.00;;;;;16.34;100.00;101140.72;5000458;28;45473;-70
2023/11/19 02:01:25;;;;;;;;;0.00;0.00;;;;;16.35;100.00;101147.84;4999799;28;45249;-70
2023/11/19 02:03:51;;;;;;;;;0.00;0.00;;;;;16.36;100.00;101140.66;4999846;28;45918;-71
2023/11/19 02:06:17;;;;;;;;;0.50;0.50;;;;;16.33;100.00;101125.50;4997645;28;45254;-70
2023/11/19 02:08:43;;;;;;;;;2.00;0.00;;;;;16.33;100.00;101124.63;4999929;28;45439;-70
2023/11/19 02:11:08;;;;;;;;;1.00;0.75;;;;;16.36;100.00;101129.88;4996203;28;45547;-70
2023/11/19 02:13:36;;;;;;;;;1.00;0.75;;;;;16.32;100.00;101123.75;4996033;28;45993;-70
2023/11/19 02:16:02;;;;;;;;;1.00;1.00;;;;;16.33;100.00;101130.88;5000198;28;45486;-70
2023/11/19 02:18:28;;;;;;;;;0.00;0.00;;;;;16.35;100.00;101133.50;4999265;28;45462;-70
2023/11/19 02:20:59;;;;;;;;;0.00;0.00;;;;;16.36;100.00;101130.72;5000618;28;45394;-70
2023/11/19 02:23:30;;;;;;;;;0.00;0.00;;;;;16.37;100.00;101127.09;4999615;28;45411;-70
2023/11/19 02:26:27;;;;;;;;;2.00;1.00;;;;;16.36;100.00;101119.97;4995491;28;45550;-70
2023/11/19 02:28:53;;;;;;;;;0.00;0.00;;;;;16.36;100.00;101121.78;4999278;28;46254;-70
2023/11/19 02:31:20;;;;;;;;;1.75;0.25;;;;;16.38;100.00;101122.56;4999248;28;70735;-70
2023/11/19 02:33:45;;;;;;;;;0.00;0.00;;;;;16.33;100.00;101109.34;5000293;28;45403;-70
2023/11/19 02:36:11;;;;;;;;;0.00;0.00;;;;;16.38;100.00;101114.50;5000040;28;45948;-70
2023/11/19 02:38:36;;;;;;;;;1.00;0.00;;;;;16.38;100.00;101109.09;4999577;28;46626;-70
2023/11/19 02:41:06;;;;;;;;;1.00;1.00;;;;;16.36;100.00;101119.09;4987017;28;45403;-71
2023/11/19 02:43:34;;;;;;;;;1.50;0.00;;;;;16.34;100.00;101116.47;4999954;28;45482;-70
2023/11/19 02:46:07;;;;;;;;;0.00;0.00;;;;;16.37;100.00;101126.22;4999986;28;45431;-70
2023/11/19 02:48:32;;;;;;;;;1.00;1.00;;;;;16.37;100.00;101112.75;4998304;28;45334;-70
2023/11/19 02:50:58;;;;;;;;;1.00;1.00;;;;;16.38;100.00;101112.66;4986050;28;45397;-70
2023/11/19 02:53:24;;;;;;;;;0.00;0.00;;;;;16.35;100.00;101110.13;4998504;28;45264;-70
2023/11/19 02:55:50;;;;;;;;;1.00;1.00;;;;;16.35;100.00;101112.81;4999961;28;45413;-70
2023/11/19 02:58:23;;;;;;;;;0.00;0.00;;;;;16.29;100.00;101108.63;4999700;28;45495;-70
2023/11/19 03:00:57;;;;;;;;;1.00;1.00;;;;;16.35;100.00;101115.50;4990913;28;45420;-70
2023/11/19 03:03:38;;;;;;;;;0.75;0.00;;;;;16.35;100.00;101110.13;4999992;28;45425;-70
2023/11/19 03:06:07;;;;;;;;;0.25;0.25;;;;;16.36;100.00;101109.19;4999685;28;45421;-70
2023/11/19 03:08:34;;;;;;;;;2.00;1.00;;;;;16.35;100.00;101110.13;4999492;28;46159;-70
2023/11/19 03:11:00;;;;;;;;;0.75;0.00;;;;;16.34;100.00;101105.69;4999434;28;45411;-70
2023/11/19 03:13:25;;;;;;;;;0.00;0.00;;;;;16.29;100.00;101096.97;4985072;28;45574;-70
2023/11/19 03:15:52;;;;;;;;;0.00;0.00;;;;;16.28;99.88;101097.91;4996629;28;45514;-70
2023/11/19 03:18:17;;;;;;;;;1.00;0.00;;;;;16.27;100.00;101094.38;4989855;28;46359;-70
2023/11/19 03:20:42;;;;;;;;;2.00;0.75;;;;;16.23;100.00;101103.53;4994822;28;70467;-70
2023/11/19 03:23:08;;;;;;;;;1.00;0.25;;;;;16.21;99.99;101101.88;4999503;28;45617;-70
2023/11/19 03:25:34;;;;;;;;;1.00;1.00;;;;;16.20;99.96;101097.44;4999499;28;45375;-70
2023/11/19 03:28:03;;;;;;;;;1.00;1.00;;;;;16.19;99.88;101101.97;4999408;28;45428;-70
2023/11/19 03:30:29;;;;;;;;;1.25;0.75;;;;;16.20;100.00;101105.50;4998338;28;45630;-71
2023/11/19 03:32:56;;;;;;;;;0.75;0.75;;;;;16.17;99.75;101093.09;4999568;28;45410;-71
2023/11/19 03:35:22;;;;;;;;;0.00;0.00;;;;;16.16;99.73;101096.72;4999165;28;45324;-70
2023/11/19 03:37:47;;;;;;;;;0.00;0.00;;;;;16.16;99.85;101098.56;4989360;28;46463;-70
2023/11/19 03:40:13;;;;;;;;;0.50;0.50;;;;;16.17;100.00;101095.78;4999123;28;45335;-70
2023/11/19 03:42:40;;;;;;;;;3.00;0.00;;;;;16.11;100.00;101088.00;4999314;28;45434;-70
2023/11/19 03:45:08;;;;;;;;;1.75;1.00;;;;;16.14;100.00;101087.84;4999067;28;45289;-70
2023/11/19 03:47:34;;;;;;;;;0.00;0.00;;;;;16.11;100.00;101090.69;4998934;28;45425;-70
2023/11/19 03:49:59;;;;;;;;;2.50;1.00;;;;;16.11;99.95;101085.31;4998361;28;45430;-70
2023/11/19 03:52:24;;;;;;;;;1.00;0.00;;;;;16.12;100.00;101092.41;4999114;28;45314;-70
2023/11/19 03:54:49;;;;;;;;;2.00;1.00;;;;;16.11;99.80;101093.38;4992777;28;72011;-70
2023/11/19 03:57:18;;;;;;;;;1.25;1.00;;;;;16.09;99.83;101093.47;4989426;28;75205;-71
2023/11/19 03:59:43;;;;;;;;;0.50;0.25;;;;;16.09;99.94;101095.28;4998746;28;45586;-70
2023/11/19 04:02:10;;;;;;;;;0.00;0.00;;;;;16.08;99.86;101094.41;5002710;28;45552;-70
2023/11/19 04:04:35;;;;;;;;;2.00;0.00;;;;;16.08;99.38;101101.63;5002438;28;45498;-70
2023/11/19 04:07:02;;;;;;;;;1.25;0.25;;;;;16.10;99.44;101102.41;5001099;28;46261;-70
2023/11/19 04:09:28;;;;;;;;;0.50;0.00;;;;;16.07;99.48;101100.75;5001419;28;45303;-70
2023/11/19 04:11:53;;;;;;;;;1.25;0.50;;;;;16.03;99.40;101101.84;5001535;28;68927;-70
2023/11/19 04:14:18;;;;;;;;;0.25;0.00;;;;;16.03;99.33;101109.06;5002167;28;45523;-70
2023/11/19 04:16:47;;;;;;;;;0.50;0.50;;;;;15.97;99.40;101096.78;5002258;28;45411;-70
2023/11/19 04:19:13;;;;;;;;;1.50;0.00;;;;;15.99;99.48;101112.81;4987695;28;45297;-71
2023/11/19 04:21:41;;;;;;;;;3.75;1.00;;;;;15.96;99.38;101105.78;5000798;28;45639;-70
2023/11/19 04:24:08;;;;;;;;;1.00;0.75;;;;;15.99;99.19;101112.81;5001935;28;45398;-70
2023/11/19 04:26:34;;;;;;;;;0.00;0.00;;;;;15.95;99.33;101108.56;4997607;28;47520;-70
2023/11/19 04:28:59;;;;;;;;;2.25;0.75;;;;;15.95;99.43;101109.41;5000243;28;45422;-70
2023/11/19 04:31:31;;;;;;;;;2.00;1.00;;;;;15.93;99.29;101109.50;5001513;28;45732;-70
2023/11/19 04:33:56;;;;;;;;;0.50;0.00;;;;;15.94;99.27;101115.75;4999860;28;45505;-70
2023/11/19 04:36:24;;;;;;;;;0.00;0.00;;;;;15.90;99.13;101101.59;4991959;28;74763;-70
2023/11/19 04:38:49;;;;;;;;;0.50;0.00;;;;;15.91;99.39;101107.84;5001950;28;45469;-70
2023/11/19 04:41:14;;;;;;;;;0.00;0.00;;;;;15.88;99.45;101099.91;5001195;28;68379;-70
2023/11/19 04:43:39;;;;;;;;;1.00;0.00;;;;;15.92;99.33;101097.00;5001948;28;72130;-70
2023/11/19 04:46:05;;;;;;;;;2.00;0.00;;;;;15.91;99.11;101102.44;4992011;28;74088;-70
2023/11/19 04:48:30;;;;;;;;;1.00;1.00;;;;;15.89;99.16;101104.34;5000786;28;45373;-70
2023/11/19 04:50:56;;;;;;;;;1.00;1.00;;;;;15.87;99.18;101104.44;5001153;28;54267;-70
2023/11/19 04:53:21;;;;;;;;;3.00;0.00;;;;;15.89;99.04;101115.97;5001543;28;45441;-70
2023/11/19 04:55:47;;;;;;;;;1.00;1.00;;;;;15.88;98.70;101113.38;5001583;28;45433;-70
2023/11/19 04:58:12;;;;;;;;;1.50;0.00;;;;;15.86;98.84;101108.06;5000876;28;45468;-70
2023/11/19 05:00:38;;;;;;;;;1.00;0.50;;;;;15.87;98.76;101123.28;5001162;28;58268;-70
2023/11/19 05:03:03;;;;;;;;;0.25;0.25;;;;;15.87;98.69;101123.28;5001529;28;45513;-70
2023/11/19 05:05:29;;;;;;;;;0.00;0.00;;;;;15.85;98.76;101124.28;5000809;28;46265;-70
2023/11/19 05:07:55;;;;;;;;;2.00;1.00;;;;;15.85;98.63;101130.53;4987876;28;45548;-70
2023/11/19 05:10:20;;;;;;;;;1.00;0.00;;;;;15.84;98.69;101125.25;5001542;28;45264;-70
2023/11/19 05:12:45;;;;;;;;;1.00;1.00;;;;;15.84;98.61;101127.94;5001137;28;45251;-70
2023/11/19 05:15:11;;;;;;;;;0.50;0.00;;;;;15.81;98.58;101128.06;5000164;28;75506;-70
2023/11/19 05:17:37;;;;;;;;;1.00;0.00;;;;;15.83;98.48;101127.03;4997038;28;45537;-70
2023/11/19 05:20:02;;;;;;;;;0.00;0.00;;;;;15.83;98.39;101132.41;4987731;28;45375;-70
2023/11/19 05:22:28;;;;;;;;;1.25;0.00;;;;;15.81;98.39;101123.56;5000837;28;45295;-70
2023/11/19 05:24:53;;;;;;;;;0.00;0.00;;;;;15.78;98.34;101118.31;4996569;28;73763;-70
2023/11/19 05:27:18;;;;;;;;;1.00;1.00;;;;;15.83;98.10;101123.47;5000597;28;59308;-70
2023/11/19 05:29:43;;;;;;;;;1.00;1.00;;;;;15.82;98.32;101128.00;5000325;28;69190;-70
2023/11/19 05:32:09;;;;;;;;;0.00;0.00;;;;;15.79;98.13;101124.59;5000147;28;72910;-70
2023/11/19 05:34:34;;;;;;;;;1.00;1.00;;;;;15.83;97.74;101143.19;5001186;28;46265;-70
2023/11/19 05:37:00;;;;;;;;;1.00;1.00;;;;;15.77;97.56;101143.50;4999932;28;66420;-70
2023/11/19 05:39:25;;;;;;;;;3.50;0.00;;;;;15.75;97.76;101145.34;5000406;28;66606;-70
2023/11/19 05:41:51;;;;;;;;;1.25;1.00;;;;;15.75;97.72;101145.34;5000878;28;45718;-70
2023/11/19 05:44:17;;;;;;;;;1.00;1.00;;;;;15.72;97.65;101146.38;4999836;28;74271;-70
2023/11/19 05:46:42;;;;;;;;;1.00;0.00;;;;;15.73;97.25;101149.94;4996390;28;45583;-70
2023/11/19 05:49:11;;;;;;;;;0.00;0.00;;;;;15.72;97.26;101146.38;4993037;28;45468;-71
2023/11/19 05:51:38;;;;;;;;;1.75;1.00;;;;;15.70;97.26;101147.38;4989342;28;45699;-70
2023/11/19 05:54:06;;;;;;;;;3.00;0.00;;;;;15.67;97.05;101144.81;4992374;28;46150;-70
2023/11/19 05:56:32;;;;;;;;;1.00;0.25;;;;;15.69;96.84;101145.66;5000504;28;45510;-71
2023/11/19 05:58:58;;;;;;;;;1.75;1.00;;;;;15.67;97.03;101145.72;5000714;28;45413;-70
2023/11/19 06:01:23;;;;;;;;;0.75;0.75;;;;;15.69;96.67;101151.91;5000624;28;45571;-70
2023/11/19 06:03:49;;;;;;;;;0.00;0.00;;;;;15.66;96.51;101154.72;4999735;28;74724;-70
2023/11/19 06:06:15;;;;;;;;;1.00;1.00;;;;;15.59;96.64;101150.59;4997228;28;45308;-70
2023/11/19 06:08:40;;;;;;;;;0.00;0.00;;;;;15.60;96.75;101157.69;5000687;28;45327;-70
2023/11/19 06:11:06;;;;;;;;;0.00;0.00;;;;;15.59;96.46;101165.88;5000355;28;45308;-70
2023/11/19 06:13:31;;;;;;;;;1.00;1.00;;;;;15.57;96.54;101163.25;4998883;28;46099;-70
2023/11/19 06:15:56;;;;;;;;;0.50;0.50;;;;;15.54;96.62;101164.25;4999347;28;67370;-70
2023/11/19 06:18:23;;;;;;;;;1.00;1.00;;;;;15.57;96.57;101164.13;4988748;28;67883;-70
2023/11/19 06:20:49;;;;;;;;;2.00;1.00;;;;;15.56;96.43;101162.34;4996380;28;45664;-70
2023/11/19 06:23:15;;;;;;;;;2.00;0.50;;;;;15.57;96.20;101171.31;4999344;28;46159;-70
2023/11/19 06:25:40;;;;;;;;;0.50;0.50;;;;;15.52;96.37;101168.84;5000222;28;45355;-70
2023/11/19 06:28:05;;;;;;;;;1.75;1.75;;;;;15.54;96.08;101177.69;5000015;28;54991;-70
2023/11/19 06:30:32;;;;;;;;;1.00;0.00;;;;;15.53;96.03;101178.63;5000093;28;45443;-70
2023/11/19 06:32:57;;;;;;;;;1.00;1.00;;;;;15.51;95.85;101177.84;5008403;28;47359;-70
2023/11/19 06:35:23;;;;;;;;;3.75;0.50;;;;;15.48;95.64;101169.91;4999760;28;45467;-70
2023/11/19 06:37:48;;;;;;;;;3.50;1.25;;;;;15.45;95.54;101175.44;4999466;28;69461;-71
2023/11/19 06:40:15;;;;;;;;;0.50;0.00;;;;;15.50;95.42;101178.81;4999616;28;55217;-70
2023/11/19 06:42:41;;;;;;;;;1.00;1.00;;;;;15.48;94.91;101188.75;5000137;28;45249;-70
2023/11/19 06:45:07;;;;;;;;;1.00;1.00;;;;;15.43;94.93;101184.53;4999228;28;45320;-70
2023/11/19 06:47:32;;;;;;;;;0.00;0.00;;;;;15.45;94.71;101196.09;5000151;28;45316;-70
2023/11/19 06:49:58;;;;;;;;;2.00;1.00;;;;;15.44;94.74;101188.97;4997520;28;73148;-70
2023/11/19 06:52:24;;;;;;;;;0.75;0.75;;;;;15.40;94.41;101179.28;4999313;28;46202;-71
2023/11/19 06:54:49;;;;;;;;;1.25;0.50;;;;;15.39;94.18;101181.09;4999831;28;45338;-71
2023/11/19 06:57:14;;;;;;;;;3.00;0.50;;;;;15.36;94.57;101179.41;4999981;28;45356;-70
2023/11/19 06:59:40;;;;;;;;;6.50;1.00;;;;;15.36;94.21;101179.41;4999642;28;45605;-70
2023/11/19 07:02:06;;;;;;;;;1.00;1.00;;;;;15.36;94.41;101184.78;4998853;28;48255;-70
2023/11/19 07:04:33;;;;;;;;;1.75;0.75;;;;;15.35;94.29;101196.50;4999660;28;45352;-70
2023/11/19 07:06:58;;;;;;;;;1.00;1.00;;;;;15.35;94.26;101195.63;4999579;28;45386;-69
2023/11/19 07:09:23;;;;;;;;;3.25;2.00;;;;;15.34;94.14;101191.19;4998605;28;45355;-70
2023/11/19 07:11:51;;;;;;;;;2.00;1.00;;;;;15.31;93.99;101192.19;4988613;28;75514;-70
2023/11/19 07:14:17;;;;;;;;;2.50;2.50;;;;;15.29;93.99;101198.59;4997264;28;45426;-70
2023/11/19 07:16:42;;;;;;;;;1.00;1.00;;;;;15.26;93.98;101188.84;4996722;28;45328;-71
2023/11/19 07:19:08;;;;;;;;;2.50;1.00;;;;;15.24;93.64;101201.50;4986312;28;45497;-70
2023/11/19 07:21:33;;;;;;;;;1.00;0.00;;;;;15.27;93.63;101203.16;4999304;28;46249;-70
2023/11/19 07:23:59;;;;;;;;;3.75;1.00;;;;;15.21;93.40;101196.25;4999174;28;45516;-70
2023/11/19 07:26:25;;;;;;;;;0.75;0.75;;;;;15.22;93.23;101207.88;4999641;28;45283;-70
2023/11/19 07:28:51;;;;;;;;;2.75;1.75;;;;;15.21;93.32;101204.31;4997933;28;45627;-70
2023/11/19 07:31:19;;;;;;;;;2.50;1.00;;;;;15.21;93.37;101206.13;4998784;28;46281;-71
2023/11/19 07:33:44;;;;;;;;;1.75;1.75;;;;;15.20;93.48;101205.25;4996085;28;45372;-70
2023/11/19 07:36:10;;;;;;;;;4.50;1.00;;;;;15.17;93.32;101208.97;5004065;28;45461;-68
2023/11/19 07:38:35;;;;;;;;;3.50;3.50;;;;;15.15;93.65;101201.88;4995977;28;45291;-69
2023/11/19 07:41:01;;;;;;;;;1.00;1.00;;;;;15.20;93.69;101213.31;4987718;28;47260;-70
2023/11/19 07:43:26;;;;;;;;;1.00;1.00;;;;;15.19;93.46;101208.91;4996474;28;73008;-70
2023/11/19 07:45:52;;;;;;;;;1.00;1.00;;;;;15.19;93.49;101200.81;4998825;28;45330;-71
2023/11/19 07:48:22;;;;;;;;;1.00;1.00;;;;;15.14;93.77;101201.03;4999090;28;45473;-70
2023/11/19 07:50:50;;;;;;;;;3.75;1.75;;;;;15.19;93.74;101209.75;4992318;28;47446;-71
2023/11/19 07:53:15;;;;;;;;;2.00;1.00;;;;;15.18;93.94;101210.72;4993706;28;45576;-72
2023/11/19 07:55:40;;;;;;;;;4.25;1.75;;;;;15.17;93.95;101216.16;4998056;28;45278;-71
2023/11/19 07:58:05;;;;;;;;;1.00;1.00;;;;;15.22;94.00;101226.69;4997329;28;73266;-70
2023/11/19 08:00:31;;;;;;;;;3.00;2.00;;;;;15.17;93.58;101210.78;4996635;28;74265;-70
2023/11/19 08:02:56;;;;;;;;;2.00;0.75;;;;;15.19;93.52;101220.50;4987747;28;59777;-71
2023/11/19 08:05:23;;;;;;;;;0.50;0.50;;;;;15.19;93.19;101222.34;4994084;28;67402;-71
2023/11/19 08:07:48;;;;;;;;;4.00;1.00;;;;;15.17;93.45;101219.72;4998692;28;45328;-71
2023/11/19 08:10:15;;;;;;;;;1.00;1.00;;;;;15.17;93.25;101222.41;4992522;28;74544;-71
2023/11/19 08:12:40;;;;;;;;;2.00;2.00;;;;;15.14;93.65;101213.59;4998911;28;45276;-71
2023/11/19 08:15:07;;;;;;;;;3.25;1.25;;;;;15.15;93.25;101221.59;4998582;28;45399;-68
2023/11/19 08:17:32;;;;;;;;;2.00;0.50;;;;;15.11;93.56;101217.28;4988767;28;45396;-71
2023/11/19 08:19:57;;;;;;;;;2.50;1.00;;;;;15.14;93.20;101224.34;4990375;28;45564;-70
2023/11/19 08:22:22;;;;;;;;;1.25;1.25;;;;;15.12;93.45;101223.56;4997388;28;72132;-70
2023/11/19 08:24:48;;;;;;;;;1.00;1.00;;;;;15.09;93.48;101223.69;4996237;28;65920;-69
2023/11/19 08:27:14;;;;;;;;;2.50;2.50;;;;;15.09;93.51;101237.13;4997850;28;45359;-70
2023/11/19 08:29:39;;;;;;;;;2.25;1.00;;;;;15.11;93.35;101228.03;4998252;28;46856;-70
2023/11/19 08:32:06;;;;;;;;;1.00;1.00;;;;;15.11;93.34;101230.72;4997883;28;70055;-70
2023/11/19 08:34:31;;;;;;;;;4.25;3.00;;;;;15.10;93.12;101234.38;4997195;28;45516;-70
2023/11/19 08:36:56;;;;;;;;;3.00;2.00;;;;;15.11;93.13;101237.94;4985411;28;45399;-70
2023/11/19 08:39:22;;;;;;;;;4.50;1.00;;;;;15.09;93.39;101238.00;4998412;28;45316;-70
2023/11/19 08:41:48;;;;;;;;;2.50;1.25;;;;;15.06;92.88;101243.50;4992214;28;45402;-69
2023/11/19 08:44:13;;;;;;;;;0.00;0.00;;;;;15.07;92.96;101229.13;4995086;28;45341;-70
2023/11/19 08:46:39;;;;;;;;;5.00;1.00;;;;;15.01;92.68;101229.38;4993084;28;45552;-69
2023/11/19 08:49:05;;;;;;;;;1.00;1.00;;;;;15.04;92.75;101233.78;4992832;28;46157;-69
2023/11/19 08:51:30;;;;;;;;;3.25;1.00;;;;;15.03;93.21;101243.63;4995014;28;45609;-70
2023/11/19 08:53:55;;;;;;;;;2.00;2.00;;;;;15.03;93.42;101240.06;4995035;28;45336;-70
2023/11/19 08:56:21;;;;;;;;;2.25;1.50;;;;;15.03;92.96;101251.69;4992356;28;72077;-70
2023/11/19 08:58:46;;;;;;;;;2.25;2.00;;;;;15.04;92.87;101249.91;4993180;28;74200;-70
2023/11/19 09:01:11;;;;;;;;;4.75;1.00;;;;;15.05;93.25;101259.69;4986792;28;73373;-70
2023/11/19 09:03:36;;;;;;;;;3.50;1.00;;;;;15.07;93.10;101272.16;5000696;28;65319;-69
2023/11/19 09:06:02;;;;;;;;;3.50;1.00;;;;;15.07;92.94;101260.50;4999135;28;71930;-70
2023/11/19 09:08:27;;;;;;;;;2.50;1.00;;;;;15.09;92.93;101270.25;5001295;28;45986;-70
2023/11/19 09:10:53;;;;;;;;;3.50;1.00;;;;;15.09;92.73;101267.56;4996829;28;73445;-70
2023/11/19 09:13:18;;;;;;;;;3.75;2.00;;;;;15.08;92.82;101276.56;4995919;28;65765;-70
2023/11/19 09:15:43;;;;;;;;;2.00;2.00;;;;;15.10;92.19;101284.56;4998697;28;45494;-70
2023/11/19 09:18:08;;;;;;;;;2.75;0.25;;;;;15.10;92.63;101276.50;4987716;28;45895;-70
2023/11/19 09:20:38;;;;;;;;;2.00;1.00;;;;;15.11;92.17;101271.06;5000670;28;55195;-70
2023/11/19 09:23:03;;;;;;;;;1.00;1.00;;;;;15.14;92.09;101278.13;5001473;28;45593;-70
2023/11/19 09:25:29;;;;;;;;;1.25;0.75;;;;;15.16;91.91;101285.19;5001010;28;45509;-70
2023/11/19 09:27:54;;;;;;;;;2.25;1.25;;;;;15.15;91.31;101288.84;4982800;28;49173;-70
2023/11/19 09:30:20;;;;;;;;;3.50;2.00;;;;;15.07;91.61;101274.84;4996674;28;73399;-70
2023/11/19 09:32:45;;;;;;;;;1.75;1.75;;;;;15.14;92.27;101288.91;4999042;28;45476;-70
2023/11/19 09:35:13;;;;;;;;;2.00;1.50;;;;;15.12;92.14;101275.50;4999728;28;72056;-70
2023/11/19 09:37:38;;;;;;;;;2.75;1.50;;;;;15.15;91.66;101279.88;5000071;28;47151;-70
2023/11/19 09:40:05;;;;;;;;;2.00;2.00;;;;;15.10;91.48;101272.03;5001024;28;45479;-69
2023/11/19 09:42:46;;;;;;;;;2.75;1.00;;;;;15.12;91.44;101277.34;5001154;28;45404;-69
2023/11/19 09:45:16;;;;;;;;;3.00;1.00;;;;;15.15;91.60;101269.13;4996367;28;45400;-70
2023/11/19 09:47:47;;;;;;;;;3.75;2.75;;;;;15.19;91.61;101266.22;4999512;28;45294;-70
2023/11/19 09:50:21;;;;;;;;;2.75;2.00;;;;;15.19;91.32;101257.31;4999447;28;45540;-70
2023/11/19 09:52:47;;;;;;;;;4.00;2.00;;;;;15.22;91.09;101272.41;4999075;28;50823;-70
2023/11/19 09:55:13;;;;;;;;;4.00;2.00;;;;;15.21;90.87;101278.75;5000827;28;45386;-70
2023/11/19 09:57:40;;;;;;;;;2.75;2.25;;;;;15.20;90.76;101272.47;4999286;28;46095;-71
2023/11/19 10:00:07;;;;;;;;;4.00;2.25;;;;;15.21;90.55;101260.78;5000694;28;45361;-70
2023/11/19 10:02:36;;;;;;;;;2.00;2.00;;;;;15.19;90.57;101251.91;4991345;28;45477;-71
2023/11/19 10:05:06;;;;;;;;;2.50;1.00;;;;;15.22;90.40;101264.34;4987764;28;46049;-73
2023/11/19 10:07:32;;;;;;;;;4.50;2.00;;;;;15.22;90.42;101272.41;5000115;28;46331;-73
2023/11/19 10:10:00;;;;;;;;;2.75;2.00;;;;;15.22;90.20;101269.72;4994495;28;45391;-73
2023/11/19 10:12:26;;;;;;;;;4.25;3.00;;;;;15.17;89.98;101262.75;4995296;28;45676;-71
2023/11/19 10:14:52;;;;;;;;;2.75;1.00;;;;;15.21;90.05;101270.69;4999939;28;45416;-71
2023/11/19 10:17:19;;;;;;;;;4.00;2.00;;;;;15.16;90.39;101269.06;5000109;28;45552;-73
2023/11/19 10:19:44;;;;;;;;;4.00;1.00;;;;;15.15;89.86;101266.44;4999391;28;45409;-72
2023/11/19 10:22:10;;;;;;;;;3.50;2.00;;;;;15.18;89.93;101271.69;4999280;28;66502;-72
2023/11/19 10:24:38;;;;;;;;;3.00;2.00;;;;;15.18;89.69;101271.69;4991000;28;45467;-72
2023/11/19 10:27:08;;;;;;;;;4.50;1.00;;;;;15.18;88.31;101263.59;5000106;28;46218;-72
2023/11/19 10:29:36;;;;;;;;;4.00;2.50;;;;;15.20;88.37;101267.09;4996991;28;45355;-71
2023/11/19 10:32:01;;;;;;;;;4.00;2.00;;;;;15.21;88.34;101263.47;4999612;28;45453;-71
2023/11/19 10:34:27;;;;;;;;;4.00;2.50;;;;;15.21;88.38;101259.94;5000426;28;45383;-72
2023/11/19 10:36:53;;;;;;;;;4.25;3.00;;;;;15.21;88.05;101259.94;4989448;28;46328;-72
2023/11/19 10:39:18;;;;;;;;;2.50;1.50;;;;;15.21;88.00;101254.53;5000342;28;45517;-72
2023/11/19 10:41:44;;;;;;;;;2.00;1.00;;;;;15.21;88.35;101244.66;5000213;28;45304;-72
2023/11/19 10:44:09;;;;;;;;;6.75;2.25;;;;;15.27;87.76;101252.47;4999876;28;45324;-73
2023/11/19 10:46:43;;;;;;;;;3.75;1.75;;;;;15.27;87.48;101259.63;4990311;28;47506;-72
2023/11/19 10:49:09;;;;;;;;;2.50;1.00;;;;;15.29;87.45;101255.09;4990425;28;45679;-75
2023/11/19 10:51:35;;;;;;;;;4.00;2.00;;;;;15.26;87.21;101252.53;4991202;28;45485;-70
2023/11/19 10:54:07;;;;;;;;;2.25;2.00;;;;;15.25;87.31;101242.69;4986372;28;63473;-70
2023/11/19 10:56:34;;;;;;;;;5.00;2.75;;;;;15.34;87.45;101247.69;4996092;28;46687;-71
2023/11/19 10:59:00;;;;;;;;;5.25;3.00;;;;;15.37;87.46;101247.56;4995919;28;45483;-73
2023/11/19 11:01:43;;;;;;;;;4.25;2.50;;;;;15.43;87.34;101243.72;4996171;28;45820;-74
2023/11/19 11:04:15;;;;;;;;;2.50;2.00;;;;;15.45;86.77;101239.13;4983339;28;45613;-68
2023/11/19 11:06:41;;;;;;;;;2.00;1.50;;;;;15.44;86.55;101229.31;4995933;28;45733;-67
2023/11/19 11:09:11;;;;;;;;;3.50;2.25;;;;;15.53;86.72;101239.66;4995754;28;45426;-67
2023/11/19 11:11:38;;;;;;;;;4.75;3.00;;;;;15.55;86.70;101251.22;4991052;28;45508;-67
2023/11/19 11:14:04;;;;;;;;;3.25;3.00;;;;;15.57;86.39;101244.84;4995869;28;45591;-67
2023/11/19 11:16:31;;;;;;;;;6.25;2.50;;;;;15.56;86.09;101239.53;4989614;28;45807;-67
2023/11/19 11:18:57;;;;;;;;;2.75;2.75;;;;;15.60;86.15;101243.81;4995118;28;45445;-67